createdAt,value
2022-10-22T00:00:41.392Z,54.92
2022-10-22T00:03:28.752Z,57.38
2022-10-22T00:05:55.928Z,51.47
2022-10-22T00:08:23.430Z,54.38
2022-10-22T00:10:50.651Z,49.05
2022-10-22T00:13:18.045Z,52.65
2022-10-22T00:15:45.185Z,51.30
2022-10-22T00:18:12.614Z,55.15
2022-10-22T00:20:39.946Z,53.03
2022-10-22T00:23:07.343Z,53.25
2022-10-22T00:25:36.077Z,58.20
2022-10-22T00:28:04.169Z,58.50
2022-10-22T00:30:31.397Z,59.88
2022-10-22T00:32:58.797Z,57.45
2022-10-22T00:35:25.994Z,56.25
2022-10-22T00:37:53.328Z,57.92
2022-10-22T00:40:20.710Z,53.50
2022-10-22T00:42:48.064Z,55.03
2022-10-22T00:45:19.407Z,53.05
2022-10-22T00:48:01.662Z,52.75
2022-10-22T00:50:58.025Z,65.00
2022-10-22T00:53:57.162Z,53.72
2022-10-22T00:56:24.813Z,58.13
2022-10-22T00:59:03.960Z,52.63
2022-10-22T01:01:32.502Z,49.47
2022-10-22T01:04:00.735Z,51.72
2022-10-22T01:06:31.083Z,56.10
2022-10-22T01:09:09.066Z,52.00
2022-10-22T01:12:04.761Z,50.80
2022-10-22T01:14:50.528Z,55.22
2022-10-22T01:17:30.601Z,57.30
2022-10-22T01:21:00.257Z,58.78
2022-10-22T01:24:08.375Z,63.50
2022-10-22T01:26:41.215Z,64.47
2022-10-22T01:29:33.027Z,66.35
2022-10-22T01:32:04.860Z,63.67
2022-10-22T01:34:33.525Z,72.82
2022-10-22T01:37:03.150Z,66.15
2022-10-22T01:39:31.442Z,82.20
2022-10-22T01:41:58.861Z,76.05
2022-10-22T01:44:33.574Z,77.55
2022-10-22T01:47:28.534Z,84.97
2022-10-22T01:50:31.204Z,82.15
2022-10-22T01:53:11.725Z,80.63
2022-10-22T01:55:57.384Z,75.13
2022-10-22T01:58:49.232Z,84.35
2022-10-22T02:01:55.212Z,80.25
2022-10-22T02:04:48.621Z,83.93
2022-10-22T02:07:20.005Z,84.05
2022-10-22T02:09:49.343Z,77.75
2022-10-22T02:12:19.992Z,84.70
2022-10-22T02:14:49.247Z,84.63
2022-10-22T02:17:22.005Z,81.38
2022-10-22T02:20:05.952Z,80.88
2022-10-22T02:22:33.895Z,74.90
2022-10-22T02:25:01.373Z,72.07
2022-10-22T02:27:40.660Z,72.80
2022-10-22T02:30:12.033Z,73.10
2022-10-22T02:32:45.692Z,54.67
2022-10-22T02:35:17.365Z,63.58
2022-10-22T02:37:45.720Z,64.00
2022-10-22T02:40:13.665Z,61.63
2022-10-22T02:42:43.035Z,64.10
2022-10-22T02:45:11.032Z,63.33
2022-10-22T02:47:38.220Z,64.53
2022-10-22T02:50:09.448Z,59.85
2022-10-22T02:52:38.621Z,59.33
2022-10-22T02:55:07.491Z,67.18
2022-10-22T02:57:34.717Z,55.92
2022-10-22T03:00:02.385Z,61.53
2022-10-22T03:02:29.604Z,59.35
2022-10-22T03:04:56.970Z,62.22
2022-10-22T03:07:24.103Z,56.55
2022-10-22T03:09:51.508Z,54.15
2022-10-22T03:12:18.745Z,60.28
2022-10-22T03:14:46.153Z,58.00
2022-10-22T03:17:14.091Z,55.90
2022-10-22T03:19:42.285Z,58.33
2022-10-22T03:22:23.695Z,57.45
2022-10-22T03:24:55.073Z,55.55
2022-10-22T03:27:23.294Z,56.00
2022-10-22T03:29:52.683Z,58.60
2022-10-22T03:32:20.039Z,51.88
2022-10-22T03:34:47.759Z,50.53
2022-10-22T03:37:15.100Z,56.40
2022-10-22T03:39:42.685Z,52.10
2022-10-22T03:42:09.907Z,50.53
2022-10-22T03:44:38.694Z,51.35
2022-10-22T03:47:06.545Z,50.95
2022-10-22T03:49:33.954Z,56.28
2022-10-22T03:52:14.861Z,51.47
2022-10-22T03:54:42.879Z,51.70
2022-10-22T03:57:10.869Z,52.15
2022-10-22T03:59:40.323Z,48.85
2022-10-22T04:02:07.824Z,51.75
2022-10-22T04:04:36.319Z,49.53
2022-10-22T04:07:04.388Z,49.35
2022-10-22T04:09:32.952Z,47.35
2022-10-22T04:12:01.226Z,51.88
2022-10-22T04:14:28.575Z,50.55
2022-10-22T04:16:55.735Z,52.15
2022-10-22T04:19:23.158Z,48.75
2022-10-22T04:21:50.326Z,49.88
2022-10-22T04:24:17.725Z,45.03
2022-10-22T04:26:44.949Z,45.63
2022-10-22T04:29:15.928Z,44.47
2022-10-22T04:31:43.761Z,49.22
2022-10-22T04:34:11.308Z,45.50
2022-10-22T04:36:38.500Z,51.60
2022-10-22T04:39:06.408Z,50.72
2022-10-22T04:41:36.192Z,50.50
2022-10-22T04:44:05.063Z,50.95
2022-10-22T04:46:34.450Z,53.28
2022-10-22T04:49:04.029Z,48.78
2022-10-22T04:51:31.966Z,51.30
2022-10-22T04:53:59.801Z,53.30
2022-10-22T04:56:29.802Z,61.67
2022-10-22T04:59:03.071Z,55.10
2022-10-22T05:01:37.090Z,64.25
2022-10-22T05:04:09.255Z,63.72
2022-10-22T05:06:37.281Z,61.88
2022-10-22T05:09:07.801Z,59.90
2022-10-22T05:11:41.731Z,58.80
2022-10-22T05:14:10.987Z,59.40
2022-10-22T05:16:38.539Z,59.50
2022-10-22T05:19:07.097Z,50.83
2022-10-22T05:21:34.793Z,54.30
2022-10-22T05:24:02.212Z,53.00
2022-10-22T05:26:30.278Z,56.65
2022-10-22T05:28:57.685Z,51.10
2022-10-22T05:31:25.028Z,53.80
2022-10-22T05:33:52.518Z,49.92
2022-10-22T05:36:21.996Z,53.75
2022-10-22T05:38:50.066Z,47.33
2022-10-22T05:41:23.156Z,49.90
2022-10-22T05:43:51.184Z,48.30
2022-10-22T05:46:22.789Z,49.28
2022-10-22T05:48:59.267Z,49.42
2022-10-22T05:51:29.086Z,47.60
2022-10-22T05:53:58.858Z,52.78
2022-10-22T05:56:27.919Z,46.58
2022-10-22T05:58:56.833Z,46.53
2022-10-22T06:01:27.524Z,48.10
2022-10-22T06:04:00.383Z,35.10
2022-10-22T06:06:44.280Z,47.15
2022-10-22T06:09:30.727Z,46.90
2022-10-22T06:11:58.618Z,44.53
2022-10-22T06:14:26.876Z,46.72
2022-10-22T06:16:54.720Z,50.72
2022-10-22T06:19:25.812Z,43.42
2022-10-22T06:21:53.686Z,47.60
2022-10-22T06:24:21.042Z,43.75
2022-10-22T06:26:52.062Z,47.72
2022-10-22T06:29:19.497Z,46.35
2022-10-22T06:31:46.706Z,45.75
2022-10-22T06:34:14.964Z,45.50
2022-10-22T06:36:44.995Z,42.67
2022-10-22T06:39:17.182Z,43.63
2022-10-22T06:41:44.440Z,42.88
2022-10-22T06:44:16.678Z,46.70
2022-10-22T06:46:44.194Z,44.88
2022-10-22T06:49:15.698Z,43.13
2022-10-22T06:51:43.406Z,45.60
2022-10-22T06:54:11.093Z,43.13
2022-10-22T06:56:38.338Z,44.95
2022-10-22T06:59:05.742Z,44.88
2022-10-22T07:01:35.089Z,44.08
2022-10-22T07:04:03.001Z,44.70
2022-10-22T07:06:30.569Z,45.28
2022-10-22T07:09:00.296Z,48.25
2022-10-22T07:11:31.015Z,42.58
2022-10-22T07:14:00.765Z,36.38
2022-10-22T07:16:32.058Z,45.45
2022-10-22T07:19:01.267Z,47.28
2022-10-22T07:21:29.314Z,44.80
2022-10-22T07:23:57.481Z,44.20
2022-10-22T07:26:25.506Z,46.28
2022-10-22T07:28:52.898Z,48.63
2022-10-22T07:31:20.282Z,49.22
2022-10-22T07:33:47.735Z,47.90
2022-10-22T07:36:19.289Z,48.17
2022-10-22T07:41:16.276Z,48.60
2022-10-22T07:43:44.095Z,47.25
2022-10-22T07:46:11.502Z,44.40
2022-10-22T07:48:39.322Z,43.72
2022-10-22T07:51:07.002Z,48.55
2022-10-22T07:53:34.482Z,46.55
2022-10-22T07:56:01.784Z,50.13
2022-10-22T07:58:29.251Z,45.22
2022-10-22T08:00:58.300Z,45.33
2022-10-22T08:03:25.685Z,49.45
2022-10-22T08:05:54.186Z,48.55
2022-10-22T08:08:23.875Z,51.97
2022-10-22T08:10:53.296Z,51.17
2022-10-22T08:13:21.234Z,51.15
2022-10-22T08:15:49.730Z,50.80
2022-10-22T08:18:18.856Z,50.05
2022-10-22T08:20:46.759Z,47.17
2022-10-22T08:23:14.147Z,45.20
2022-10-22T08:25:41.324Z,52.42
2022-10-22T08:28:08.729Z,45.03
2022-10-22T08:30:38.661Z,46.75
2022-10-22T08:33:06.374Z,46.42
2022-10-22T08:35:33.814Z,48.20
2022-10-22T08:38:01.204Z,47.08
2022-10-22T08:40:38.218Z,47.38
2022-10-22T08:43:05.556Z,50.15
2022-10-22T08:45:53.365Z,45.47
2022-10-22T08:48:46.513Z,49.60
2022-10-22T08:51:19.260Z,48.25
2022-10-22T08:54:01.597Z,52.47
2022-10-22T08:56:30.265Z,51.83
2022-10-22T08:59:07.016Z,50.85
2022-10-22T09:01:38.697Z,55.80
2022-10-22T09:04:11.674Z,50.33
2022-10-22T09:06:41.115Z,50.40
2022-10-22T09:09:16.400Z,52.55
2022-10-22T09:11:46.950Z,50.85
2022-10-22T09:14:17.389Z,51.95
2022-10-22T09:17:21.723Z,49.97
2022-10-22T09:19:57.956Z,46.50
2022-10-22T09:22:51.005Z,50.42
2022-10-22T09:25:25.224Z,56.25
2022-10-22T09:27:58.271Z,45.88
2022-10-22T09:30:29.505Z,46.95
2022-10-22T09:33:13.826Z,47.70
2022-10-22T09:35:56.212Z,46.63
2022-10-22T09:38:26.969Z,48.95
2022-10-22T09:40:56.347Z,40.15
2022-10-22T09:43:23.905Z,40.25
2022-10-22T09:46:03.129Z,41.17
2022-10-22T09:48:39.667Z,42.47
2022-10-22T09:51:40.565Z,39.38
2022-10-22T09:54:38.626Z,40.55
2022-10-22T09:57:16.737Z,43.03
2022-10-22T09:59:45.545Z,43.72
2022-10-22T10:02:20.004Z,40.58
2022-10-22T10:04:56.543Z,32.20
2022-10-22T10:07:26.720Z,43.97
2022-10-22T10:09:54.528Z,43.65
2022-10-22T10:12:43.725Z,44.63
2022-10-22T10:15:38.401Z,45.08
2022-10-22T10:18:23.841Z,45.63
2022-10-22T10:21:26.650Z,41.85
2022-10-22T10:24:06.344Z,45.42
2022-10-22T10:27:07.085Z,41.53
2022-10-22T10:29:42.309Z,40.45
2022-10-22T10:32:31.510Z,43.65
2022-10-22T10:35:15.691Z,40.65
2022-10-22T10:37:52.176Z,43.28
2022-10-22T10:40:19.592Z,42.72
2022-10-22T10:42:56.607Z,38.80
2022-10-22T10:45:42.882Z,35.13
2022-10-22T10:48:43.436Z,43.90
2022-10-22T10:51:35.712Z,36.70
2022-10-22T10:56:49.918Z,32.40
2022-10-22T11:00:04.582Z,32.75
2022-10-22T11:03:08.416Z,30.42
2022-10-22T11:05:57.996Z,28.23
2022-10-22T11:08:31.441Z,28.95
2022-10-22T11:11:07.821Z,27.45
2022-10-22T11:13:52.369Z,27.75
2022-10-22T11:16:32.428Z,26.17
2022-10-22T11:19:27.740Z,26.00
2022-10-22T11:22:15.843Z,25.77
2022-10-22T11:24:53.186Z,24.33
2022-10-22T11:27:23.439Z,26.17
2022-10-22T11:29:59.897Z,23.45
2022-10-22T11:32:28.344Z,24.25
2022-10-22T11:35:01.210Z,29.42
2022-10-22T11:37:35.703Z,24.80
2022-10-22T11:40:14.312Z,23.38
2022-10-22T11:42:47.990Z,27.52
2022-10-22T11:45:15.291Z,26.90
2022-10-22T11:48:09.802Z,28.63
2022-10-22T11:51:00.832Z,25.77
2022-10-22T11:53:34.691Z,29.60
2022-10-22T11:56:23.489Z,25.90
2022-10-22T11:58:53.943Z,29.00
2022-10-22T12:03:57.649Z,28.63
2022-10-22T12:06:26.897Z,29.65
2022-10-22T12:08:57.311Z,31.23
2022-10-22T12:11:47.810Z,33.08
2022-10-22T12:14:20.579Z,29.00
2022-10-22T12:16:56.616Z,30.08
2022-10-22T12:19:27.053Z,31.60
2022-10-22T12:22:06.472Z,33.15
2022-10-22T12:24:40.718Z,36.17
2022-10-22T12:27:26.224Z,36.80
2022-10-22T12:29:58.946Z,38.03
2022-10-22T12:32:38.703Z,40.88
2022-10-22T12:35:09.135Z,41.55
2022-10-22T12:37:37.881Z,41.95
2022-10-22T12:40:26.550Z,47.65
2022-10-22T12:42:57.004Z,46.40
2022-10-22T12:45:28.367Z,51.63
2022-10-22T12:47:59.050Z,49.35
2022-10-22T12:50:37.644Z,51.95
2022-10-22T12:53:32.157Z,49.03
2022-10-22T12:56:07.424Z,47.78
2022-10-22T12:59:00.133Z,52.40
2022-10-22T13:01:29.940Z,52.33
2022-10-22T13:04:18.355Z,66.65
2022-10-22T13:06:47.959Z,58.13
2022-10-22T13:09:23.796Z,59.08
2022-10-22T13:12:04.828Z,61.35
2022-10-22T13:14:34.948Z,64.75
2022-10-22T13:17:09.993Z,62.55
2022-10-22T13:20:02.140Z,65.85
2022-10-22T13:22:40.835Z,70.50
2022-10-22T13:25:17.391Z,65.70
2022-10-22T13:27:45.415Z,73.43
2022-10-22T13:30:25.223Z,72.03
2022-10-22T13:32:56.018Z,72.28
2022-10-22T13:35:30.080Z,81.07
2022-10-22T13:37:57.364Z,79.97
2022-10-22T13:40:25.254Z,73.05
2022-10-22T13:42:52.452Z,89.35
2022-10-22T13:45:20.250Z,81.32
2022-10-22T13:47:53.586Z,87.70
2022-10-22T13:50:21.757Z,86.95
2022-10-22T13:52:55.530Z,80.65
2022-10-22T13:55:29.146Z,83.90
2022-10-22T14:00:58.396Z,84.00
2022-10-22T14:03:33.080Z,85.05
2022-10-22T14:06:00.743Z,85.10
2022-10-22T14:08:28.301Z,75.93
2022-10-22T14:10:56.050Z,84.72
2022-10-22T14:13:23.396Z,75.45
2022-10-22T14:15:52.413Z,85.47
2022-10-22T14:18:26.382Z,79.85
2022-10-22T14:21:00.168Z,76.70
2022-10-22T14:23:29.820Z,77.68
2022-10-22T14:25:57.795Z,72.65
2022-10-22T14:28:25.211Z,80.13
2022-10-22T14:30:55.348Z,71.00
2022-10-22T14:33:32.055Z,70.03
2022-10-22T14:36:01.144Z,74.63
2022-10-22T14:38:29.353Z,79.22
2022-10-22T14:40:59.408Z,71.00
2022-10-22T14:43:29.895Z,69.03
2022-10-22T14:45:57.869Z,65.83
2022-10-22T14:48:25.092Z,64.28
2022-10-22T14:50:52.577Z,62.88
2022-10-22T14:53:19.864Z,60.08
2022-10-22T14:55:49.218Z,64.60
2022-10-22T14:58:16.597Z,55.08
2022-10-22T15:00:44.291Z,55.65
2022-10-22T15:03:12.049Z,58.15
2022-10-22T15:05:44.928Z,54.60
2022-10-22T15:08:14.245Z,65.70
2022-10-22T15:10:41.941Z,57.15
2022-10-22T15:13:09.519Z,60.42
2022-10-22T15:15:40.387Z,71.75
2022-10-22T15:18:07.693Z,52.30
2022-10-22T15:20:35.178Z,66.43
2022-10-22T15:23:02.721Z,56.40
2022-10-22T15:25:30.581Z,62.55
2022-10-22T15:28:00.786Z,57.25
2022-10-22T15:30:32.132Z,63.67
2022-10-22T15:32:59.307Z,52.88
2022-10-22T15:35:28.565Z,62.15
2022-10-22T15:37:55.771Z,60.25
2022-10-22T15:40:23.242Z,57.22
2022-10-22T15:42:50.751Z,51.10
2022-10-22T15:45:18.117Z,56.25
2022-10-22T15:47:47.597Z,56.60
2022-10-22T15:50:15.825Z,50.08
2022-10-22T15:52:42.973Z,55.38
2022-10-22T15:57:45.548Z,52.75
2022-10-22T16:00:14.054Z,52.00
2022-10-22T16:02:42.877Z,55.90
2022-10-22T16:05:10.225Z,58.40
2022-10-22T16:07:37.775Z,59.67
2022-10-22T16:10:07.679Z,61.55
2022-10-22T16:12:36.133Z,54.33
2022-10-22T16:15:03.814Z,66.10
2022-10-22T16:17:30.973Z,65.28
2022-10-22T16:19:58.488Z,72.93
2022-10-22T16:22:25.715Z,64.53
2022-10-22T16:24:53.054Z,68.70
2022-10-22T16:27:20.229Z,69.72
2022-10-22T16:29:47.605Z,71.72
2022-10-22T16:32:16.554Z,69.53
2022-10-22T16:34:43.997Z,76.15
2022-10-22T16:37:11.312Z,67.60
2022-10-22T16:39:38.802Z,84.65
2022-10-22T16:42:06.559Z,79.38
2022-10-22T16:44:34.086Z,84.72
2022-10-22T16:47:01.213Z,76.13
2022-10-22T16:49:29.224Z,95.65
2022-10-22T16:51:56.435Z,83.40
2022-10-22T16:54:23.800Z,100.18
2022-10-22T16:56:51.120Z,87.90
2022-10-22T16:59:18.489Z,89.32
2022-10-22T17:01:45.654Z,88.22
2022-10-22T17:04:13.194Z,80.13
2022-10-22T17:06:40.339Z,79.22
2022-10-22T17:09:07.955Z,87.60
2022-10-22T17:11:37.035Z,79.90
2022-10-22T17:16:34.351Z,85.57
2022-10-22T17:19:03.896Z,90.20
2022-10-22T17:21:31.358Z,79.32
2022-10-22T17:23:58.925Z,77.13
2022-10-22T17:26:30.532Z,95.72
2022-10-22T17:28:58.251Z,87.03
2022-10-22T17:31:27.940Z,92.03
2022-10-22T17:33:56.699Z,79.78
2022-10-22T17:36:24.812Z,85.35
2022-10-22T17:38:55.001Z,73.00
2022-10-22T17:41:25.021Z,86.43
2022-10-22T17:43:52.757Z,79.97
2022-10-22T17:46:25.266Z,71.95
2022-10-22T17:49:00.595Z,70.75
2022-10-22T17:51:29.976Z,69.63
2022-10-22T17:53:57.827Z,69.07
2022-10-22T17:56:32.666Z,65.40
2022-10-22T17:59:00.148Z,65.55
2022-10-22T18:01:32.229Z,72.38
2022-10-22T18:04:02.987Z,62.17
2022-10-22T18:06:31.121Z,67.75
2022-10-22T18:08:58.590Z,68.10
2022-10-22T18:11:27.950Z,65.05
2022-10-22T18:13:57.228Z,72.47
2022-10-22T18:16:25.871Z,64.03
2022-10-22T18:18:55.378Z,63.38
2022-10-22T18:21:25.602Z,60.45
2022-10-22T18:23:53.604Z,53.35
2022-10-22T18:26:25.836Z,53.92
2022-10-22T18:28:56.373Z,49.10
2022-10-22T18:31:25.377Z,50.92
2022-10-22T18:33:55.411Z,48.10
2022-10-22T18:36:25.991Z,43.55
2022-10-22T18:38:58.983Z,49.05
2022-10-22T18:41:27.124Z,47.15
2022-10-22T18:43:57.232Z,44.90
2022-10-22T18:46:25.567Z,48.42
2022-10-22T18:48:57.842Z,40.35
2022-10-22T18:51:26.642Z,44.63
2022-10-22T18:54:05.988Z,48.05
2022-10-22T18:56:43.967Z,48.45
2022-10-22T18:59:20.279Z,48.60
2022-10-22T19:01:48.081Z,42.67
2022-10-22T19:04:15.767Z,53.92
2022-10-22T19:06:45.576Z,47.05
2022-10-22T19:09:16.951Z,49.58
2022-10-22T19:11:45.499Z,45.85
2022-10-22T19:14:14.947Z,49.28
2022-10-22T19:16:42.221Z,47.30
2022-10-22T19:19:09.783Z,53.95
2022-10-22T19:21:38.424Z,49.97
2022-10-22T19:24:06.740Z,41.08
2022-10-22T19:26:34.350Z,44.05
2022-10-22T19:29:02.329Z,45.25
2022-10-22T19:31:31.368Z,41.72
2022-10-22T19:34:00.708Z,45.10
2022-10-22T19:36:30.152Z,48.78
2022-10-22T19:38:58.266Z,38.90
2022-10-22T19:41:27.450Z,44.42
2022-10-22T19:43:55.949Z,40.83
2022-10-22T19:46:23.982Z,45.97
2022-10-22T19:48:52.866Z,45.20
2022-10-22T19:51:22.571Z,43.05
2022-10-22T19:53:56.506Z,36.28
2022-10-22T19:56:23.699Z,38.63
2022-10-22T19:58:51.156Z,37.08
2022-10-22T20:01:19.322Z,35.33
2022-10-22T20:03:47.164Z,34.67
2022-10-22T20:06:16.411Z,36.67
2022-10-22T20:08:44.098Z,36.92
2022-10-22T20:11:23.159Z,39.65
2022-10-22T20:13:52.360Z,38.05
2022-10-22T20:16:26.044Z,43.40
2022-10-22T20:18:53.408Z,36.50
2022-10-22T20:21:22.004Z,40.90
2022-10-22T20:23:53.249Z,36.67
2022-10-22T20:26:21.364Z,38.13
2022-10-22T20:28:48.739Z,35.72
2022-10-22T20:31:19.120Z,36.10
2022-10-22T20:33:47.973Z,39.05
2022-10-22T20:36:22.962Z,32.22
2022-10-22T20:38:51.412Z,33.60
2022-10-22T20:41:23.451Z,28.85
2022-10-22T20:43:51.784Z,30.52
2022-10-22T20:46:23.119Z,32.28
2022-10-22T20:48:52.413Z,32.53
2022-10-22T20:51:20.141Z,27.58
2022-10-22T20:53:47.653Z,30.15
2022-10-22T20:56:15.077Z,27.85
2022-10-22T20:58:48.005Z,26.33
2022-10-22T21:01:24.181Z,30.60
2022-10-22T21:03:52.860Z,33.55
2022-10-22T21:06:23.174Z,36.50
2022-10-22T21:08:51.841Z,29.20
2022-10-22T21:11:20.082Z,39.30
2022-10-22T21:13:47.454Z,33.33
2022-10-22T21:16:17.082Z,33.88
2022-10-22T21:18:45.248Z,32.90
2022-10-22T21:21:12.945Z,34.00
2022-10-22T21:23:40.494Z,37.28
2022-10-22T21:26:07.851Z,38.03
2022-10-22T21:28:37.054Z,38.13
2022-10-22T21:31:06.366Z,32.60
2022-10-22T21:33:39.189Z,39.20
2022-10-22T21:36:09.156Z,32.63
2022-10-22T21:38:37.772Z,40.55
2022-10-22T21:41:07.132Z,37.40
2022-10-22T21:43:36.515Z,37.67
2022-10-22T21:46:09.218Z,40.28
2022-10-22T21:48:37.918Z,36.65
2022-10-22T21:51:10.138Z,33.40
2022-10-22T21:53:38.080Z,36.47
2022-10-22T21:56:06.004Z,42.53
2022-10-22T21:58:37.077Z,33.05
2022-10-22T22:01:04.630Z,41.23
2022-10-22T22:03:32.106Z,38.70
2022-10-22T22:06:06.366Z,38.35
2022-10-22T22:08:34.262Z,36.85
2022-10-22T22:11:04.297Z,34.63
2022-10-22T22:13:32.821Z,46.08
2022-10-22T22:16:22.410Z,40.13
2022-10-22T22:18:53.228Z,35.15
2022-10-22T22:21:21.492Z,35.05
2022-10-22T22:23:49.929Z,35.22
2022-10-22T22:26:25.258Z,34.53
2022-10-22T22:28:56.235Z,32.53
2022-10-22T22:31:27.195Z,30.88
2022-10-22T22:34:01.761Z,29.67
2022-10-22T22:36:33.757Z,32.40
2022-10-22T22:39:01.551Z,27.27
2022-10-22T22:41:28.787Z,29.60
2022-10-22T22:46:28.294Z,26.52
2022-10-22T22:48:55.666Z,30.20
2022-10-22T22:51:23.291Z,29.02
2022-10-22T22:53:51.235Z,30.15
2022-10-22T22:56:24.188Z,28.45
2022-10-22T22:58:51.711Z,30.35
2022-10-22T23:01:26.111Z,30.83
2022-10-22T23:03:57.605Z,23.45
2022-10-22T23:06:31.100Z,25.17
2022-10-22T23:08:59.023Z,34.78
2022-10-22T23:11:27.814Z,23.40
2022-10-22T23:13:58.590Z,27.17
2022-10-22T23:16:29.437Z,28.60
2022-10-22T23:18:57.933Z,29.67
2022-10-22T23:21:30.921Z,23.08
2022-10-22T23:24:01.549Z,21.92
2022-10-22T23:26:31.717Z,20.73
2022-10-22T23:29:08.565Z,19.38
2022-10-22T23:31:35.729Z,22.80
2022-10-22T23:34:03.175Z,22.40
2022-10-22T23:36:30.305Z,21.27
2022-10-22T23:38:57.805Z,24.88
2022-10-22T23:41:24.949Z,21.38
2022-10-22T23:43:52.324Z,19.73
2022-10-22T23:46:19.452Z,23.27
2022-10-22T23:48:46.875Z,21.50
2022-10-22T23:51:16.591Z,25.85
2022-10-22T23:53:45.192Z,21.48
2022-10-22T23:56:18.293Z,21.05
2022-10-22T23:58:45.678Z,22.63
